sensor_id;sensor_type;location;lat;lon;timestamp;P1;durP1;ratioP1;P2;durP2;ratioP2
70148;SDS011;57514;52.164;5.282;2023-04-02T00:01:44;16.50;;;8.20;;
70148;SDS011;57514;52.164;5.282;2023-04-02T00:04:16;17.17;;;7.80;;
70148;SDS011;57514;52.164;5.282;2023-04-02T00:06:53;18.75;;;10.52;;
70148;SDS011;57514;52.164;5.282;2023-04-02T00:09:38;17.88;;;8.30;;
70148;SDS011;57514;52.164;5.282;2023-04-02T00:12:16;17.42;;;8.18;;
70148;SDS011;57514;52.164;5.282;2023-04-02T00:14:45;21.00;;;9.93;;
70148;SDS011;57514;52.164;5.282;2023-04-02T00:17:13;18.65;;;7.32;;
70148;SDS011;57514;52.164;5.282;2023-04-02T00:19:50;17.83;;;8.55;;
70148;SDS011;57514;52.164;5.282;2023-04-02T00:22:19;18.85;;;7.88;;
70148;SDS011;57514;52.164;5.282;2023-04-02T00:24:51;16.25;;;8.40;;
70148;SDS011;57514;52.164;5.282;2023-04-02T00:27:18;18.17;;;8.85;;
70148;SDS011;57514;52.164;5.282;2023-04-02T00:29:50;14.98;;;7.47;;
70148;SDS011;57514;52.164;5.282;2023-04-02T00:32:28;15.48;;;7.50;;
70148;SDS011;57514;52.164;5.282;2023-04-02T00:34:57;16.35;;;8.32;;
70148;SDS011;57514;52.164;5.282;2023-04-02T00:37:29;19.15;;;8.30;;
70148;SDS011;57514;52.164;5.282;2023-04-02T00:40:06;20.13;;;9.30;;
70148;SDS011;57514;52.164;5.282;2023-04-02T00:42:37;19.05;;;9.85;;
70148;SDS011;57514;52.164;5.282;2023-04-02T00:45:06;18.30;;;8.32;;
70148;SDS011;57514;52.164;5.282;2023-04-02T00:47:39;17.27;;;8.40;;
70148;SDS011;57514;52.164;5.282;2023-04-02T00:52:37;19.88;;;9.80;;
70148;SDS011;57514;52.164;5.282;2023-04-02T00:55:21;19.58;;;9.13;;
70148;SDS011;57514;52.164;5.282;2023-04-02T00:57:50;19.58;;;8.75;;
70148;SDS011;57514;52.164;5.282;2023-04-02T01:03:13;19.17;;;9.55;;
70148;SDS011;57514;52.164;5.282;2023-04-02T01:05:33;18.80;;;9.10;;
70148;SDS011;57514;52.164;5.282;2023-04-02T01:08:06;16.27;;;7.90;;
70148;SDS011;57514;52.164;5.282;2023-04-02T01:16:03;15.35;;;7.00;;
70148;SDS011;57514;52.164;5.282;2023-04-02T01:18:36;15.90;;;6.80;;
70148;SDS011;57514;52.164;5.282;2023-04-02T01:23:42;14.98;;;8.85;;
70148;SDS011;57514;52.164;5.282;2023-04-02T01:31:09;16.27;;;8.68;;
70148;SDS011;57514;52.164;5.282;2023-04-02T01:33:36;15.90;;;7.20;;
70148;SDS011;57514;52.164;5.282;2023-04-02T01:36:11;15.40;;;6.93;;
70148;SDS011;57514;52.164;5.282;2023-04-02T01:38:43;18.80;;;8.93;;
70148;SDS011;57514;52.164;5.282;2023-04-02T01:44:42;16.52;;;8.32;;
70148;SDS011;57514;52.164;5.282;2023-04-02T01:46:49;15.85;;;6.90;;
70148;SDS011;57514;52.164;5.282;2023-04-02T01:49:18;13.32;;;7.25;;
70148;SDS011;57514;52.164;5.282;2023-04-02T01:51:49;16.55;;;7.97;;
70148;SDS011;57514;52.164;5.282;2023-04-02T01:54:19;16.45;;;7.05;;
70148;SDS011;57514;52.164;5.282;2023-04-02T01:56:47;14.70;;;7.07;;
70148;SDS011;57514;52.164;5.282;2023-04-02T01:59:19;17.30;;;8.75;;
70148;SDS011;57514;52.164;5.282;2023-04-02T02:01:52;18.13;;;8.15;;
70148;SDS011;57514;52.164;5.282;2023-04-02T02:04:20;17.98;;;8.75;;
70148;SDS011;57514;52.164;5.282;2023-04-02T02:06:47;15.20;;;7.60;;
70148;SDS011;57514;52.164;5.282;2023-04-02T02:09:19;16.50;;;7.78;;
70148;SDS011;57514;52.164;5.282;2023-04-02T02:11:51;16.55;;;8.27;;
70148;SDS011;57514;52.164;5.282;2023-04-02T02:14:20;15.82;;;8.15;;
70148;SDS011;57514;52.164;5.282;2023-04-02T02:16:47;16.00;;;7.57;;
70148;SDS011;57514;52.164;5.282;2023-04-02T02:19:58;16.25;;;8.13;;
70148;SDS011;57514;52.164;5.282;2023-04-02T02:22:23;16.60;;;8.63;;
70148;SDS011;57514;52.164;5.282;2023-04-02T02:24:53;15.10;;;6.38;;
70148;SDS011;57514;52.164;5.282;2023-04-02T02:29:59;14.52;;;6.80;;
70148;SDS011;57514;52.164;5.282;2023-04-02T02:32:28;15.35;;;6.80;;
70148;SDS011;57514;52.164;5.282;2023-04-02T02:34:59;14.57;;;7.45;;
70148;SDS011;57514;52.164;5.282;2023-04-02T02:37:28;13.90;;;7.78;;
70148;SDS011;57514;52.164;5.282;2023-04-02T02:39:57;14.48;;;6.10;;
70148;SDS011;57514;52.164;5.282;2023-04-02T02:42:34;14.38;;;6.90;;
70148;SDS011;57514;52.164;5.282;2023-04-02T02:45:04;13.20;;;5.10;;
70148;SDS011;57514;52.164;5.282;2023-04-02T02:47:35;12.80;;;5.38;;
70148;SDS011;57514;52.164;5.282;2023-04-02T02:50:06;12.63;;;6.00;;
70148;SDS011;57514;52.164;5.282;2023-04-02T02:52:37;11.75;;;5.15;;
70148;SDS011;57514;52.164;5.282;2023-04-02T02:55:09;11.95;;;5.88;;
70148;SDS011;57514;52.164;5.282;2023-04-02T02:58:02;12.05;;;5.88;;
70148;SDS011;57514;52.164;5.282;2023-04-02T03:00:39;12.70;;;4.88;;
70148;SDS011;57514;52.164;5.282;2023-04-02T03:03:08;11.10;;;5.05;;
70148;SDS011;57514;52.164;5.282;2023-04-02T03:05:37;15.63;;;7.03;;
70148;SDS011;57514;52.164;5.282;2023-04-02T03:08:12;13.02;;;5.55;;
70148;SDS011;57514;52.164;5.282;2023-04-02T03:10:47;11.48;;;5.20;;
70148;SDS011;57514;52.164;5.282;2023-04-02T03:13:21;10.93;;;5.13;;
70148;SDS011;57514;52.164;5.282;2023-04-02T03:15:59;13.07;;;6.03;;
70148;SDS011;57514;52.164;5.282;2023-04-02T03:23:58;16.60;;;7.57;;
70148;SDS011;57514;52.164;5.282;2023-04-02T03:26:32;10.32;;;4.90;;
70148;SDS011;57514;52.164;5.282;2023-04-02T03:29:18;15.38;;;6.57;;
70148;SDS011;57514;52.164;5.282;2023-04-02T03:31:47;11.63;;;6.30;;
70148;SDS011;57514;52.164;5.282;2023-04-02T03:34:30;14.98;;;6.25;;
70148;SDS011;57514;52.164;5.282;2023-04-02T03:39:34;13.23;;;6.05;;
70148;SDS011;57514;52.164;5.282;2023-04-02T03:42:04;12.57;;;5.90;;
70148;SDS011;57514;52.164;5.282;2023-04-02T03:44:34;13.40;;;6.15;;
70148;SDS011;57514;52.164;5.282;2023-04-02T03:49:48;14.07;;;6.80;;
70148;SDS011;57514;52.164;5.282;2023-04-02T03:52:21;13.88;;;6.53;;
70148;SDS011;57514;52.164;5.282;2023-04-02T03:54:53;11.73;;;6.03;;
70148;SDS011;57514;52.164;5.282;2023-04-02T03:57:31;11.55;;;5.00;;
70148;SDS011;57514;52.164;5.282;2023-04-02T04:00:03;14.50;;;6.53;;
70148;SDS011;57514;52.164;5.282;2023-04-02T04:02:41;13.60;;;7.53;;
70148;SDS011;57514;52.164;5.282;2023-04-02T04:05:22;13.40;;;6.00;;
70148;SDS011;57514;52.164;5.282;2023-04-02T04:07:52;14.15;;;7.20;;
70148;SDS011;57514;52.164;5.282;2023-04-02T04:10:22;14.98;;;7.75;;
70148;SDS011;57514;52.164;5.282;2023-04-02T04:12:51;13.73;;;6.38;;
70148;SDS011;57514;52.164;5.282;2023-04-02T04:20:19;13.38;;;6.50;;
70148;SDS011;57514;52.164;5.282;2023-04-02T04:22:51;12.02;;;6.50;;
70148;SDS011;57514;52.164;5.282;2023-04-02T04:25:26;13.55;;;7.40;;
70148;SDS011;57514;52.164;5.282;2023-04-02T04:28:09;15.48;;;6.63;;
70148;SDS011;57514;52.164;5.282;2023-04-02T04:30:45;11.88;;;5.78;;
70148;SDS011;57514;52.164;5.282;2023-04-02T04:33:15;11.88;;;5.93;;
70148;SDS011;57514;52.164;5.282;2023-04-02T04:35:56;11.05;;;5.32;;
70148;SDS011;57514;52.164;5.282;2023-04-02T04:38:34;10.10;;;4.88;;
70148;SDS011;57514;52.164;5.282;2023-04-02T04:43:45;13.63;;;6.85;;
70148;SDS011;57514;52.164;5.282;2023-04-02T04:48:53;11.10;;;5.43;;
70148;SDS011;57514;52.164;5.282;2023-04-02T04:51:24;14.52;;;5.45;;
70148;SDS011;57514;52.164;5.282;2023-04-02T04:53:53;14.57;;;6.18;;
70148;SDS011;57514;52.164;5.282;2023-04-02T04:56:26;12.85;;;4.63;;
70148;SDS011;57514;52.164;5.282;2023-04-02T04:59:13;10.27;;;5.30;;
70148;SDS011;57514;52.164;5.282;2023-04-02T05:01:51;11.40;;;5.20;;
70148;SDS011;57514;52.164;5.282;2023-04-02T05:04:37;9.45;;;4.45;;
70148;SDS011;57514;52.164;5.282;2023-04-02T05:07:12;12.70;;;5.55;;
70148;SDS011;57514;52.164;5.282;2023-04-02T05:09:49;13.45;;;5.55;;
70148;SDS011;57514;52.164;5.282;2023-04-02T05:12:23;12.70;;;6.20;;
70148;SDS011;57514;52.164;5.282;2023-04-02T05:15:01;12.20;;;4.93;;
70148;SDS011;57514;52.164;5.282;2023-04-02T05:17:35;10.60;;;5.20;;
70148;SDS011;57514;52.164;5.282;2023-04-02T05:20:11;11.02;;;5.72;;
70148;SDS011;57514;52.164;5.282;2023-04-02T05:22:47;11.20;;;3.97;;
70148;SDS011;57514;52.164;5.282;2023-04-02T05:25:21;14.18;;;5.32;;
70148;SDS011;57514;52.164;5.282;2023-04-02T05:27:52;13.00;;;5.22;;
70148;SDS011;57514;52.164;5.282;2023-04-02T05:33:02;4.47;;;2.33;;
70148;SDS011;57514;52.164;5.282;2023-04-02T05:35:34;9.73;;;3.53;;
70148;SDS011;57514;52.164;5.282;2023-04-02T05:38:03;8.95;;;3.88;;
70148;SDS011;57514;52.164;5.282;2023-04-02T05:40:37;13.40;;;4.15;;
70148;SDS011;57514;52.164;5.282;2023-04-02T05:43:09;6.07;;;3.05;;
70148;SDS011;57514;52.164;5.282;2023-04-02T05:45:41;10.02;;;3.72;;
70148;SDS011;57514;52.164;5.282;2023-04-02T05:48:18;6.65;;;3.10;;
70148;SDS011;57514;52.164;5.282;2023-04-02T05:50:50;6.18;;;3.22;;
70148;SDS011;57514;52.164;5.282;2023-04-02T05:58:40;9.13;;;3.00;;
70148;SDS011;57514;52.164;5.282;2023-04-02T06:03:54;8.27;;;4.05;;
70148;SDS011;57514;52.164;5.282;2023-04-02T06:09:19;9.13;;;4.18;;
70148;SDS011;57514;52.164;5.282;2023-04-02T06:11:50;11.77;;;4.05;;
70148;SDS011;57514;52.164;5.282;2023-04-02T06:14:19;8.77;;;4.22;;
70148;SDS011;57514;52.164;5.282;2023-04-02T06:16:47;10.10;;;3.97;;
70148;SDS011;57514;52.164;5.282;2023-04-02T06:19:19;9.52;;;3.85;;
70148;SDS011;57514;52.164;5.282;2023-04-02T06:21:49;11.35;;;4.68;;
70148;SDS011;57514;52.164;5.282;2023-04-02T06:24:21;8.05;;;3.22;;
70148;SDS011;57514;52.164;5.282;2023-04-02T06:26:59;12.75;;;4.78;;
70148;SDS011;57514;52.164;5.282;2023-04-02T06:29:32;9.90;;;4.32;;
70148;SDS011;57514;52.164;5.282;2023-04-02T06:32:08;9.55;;;4.30;;
70148;SDS011;57514;52.164;5.282;2023-04-02T06:34:40;9.75;;;4.32;;
70148;SDS011;57514;52.164;5.282;2023-04-02T06:39:53;8.02;;;3.88;;
70148;SDS011;57514;52.164;5.282;2023-04-02T06:42:25;6.22;;;3.40;;
70148;SDS011;57514;52.164;5.282;2023-04-02T06:45:21;8.25;;;5.22;;
70148;SDS011;57514;52.164;5.282;2023-04-02T06:48:16;11.60;;;4.45;;
70148;SDS011;57514;52.164;5.282;2023-04-02T06:50:50;11.18;;;4.82;;
70148;SDS011;57514;52.164;5.282;2023-04-02T06:53:25;11.40;;;4.78;;
70148;SDS011;57514;52.164;5.282;2023-04-02T06:56:00;9.05;;;4.95;;
70148;SDS011;57514;52.164;5.282;2023-04-02T06:58:30;11.20;;;3.63;;
70148;SDS011;57514;52.164;5.282;2023-04-02T07:00:58;13.18;;;5.32;;
70148;SDS011;57514;52.164;5.282;2023-04-02T07:03:34;7.85;;;3.70;;
70148;SDS011;57514;52.164;5.282;2023-04-02T07:06:15;9.82;;;5.53;;
70148;SDS011;57514;52.164;5.282;2023-04-02T07:08:44;12.90;;;4.60;;
70148;SDS011;57514;52.164;5.282;2023-04-02T07:11:16;11.93;;;5.85;;
70148;SDS011;57514;52.164;5.282;2023-04-02T07:13:48;10.30;;;5.07;;
70148;SDS011;57514;52.164;5.282;2023-04-02T07:16:17;11.65;;;5.53;;
70148;SDS011;57514;52.164;5.282;2023-04-02T07:18:45;9.07;;;4.80;;
70148;SDS011;57514;52.164;5.282;2023-04-02T07:21:13;10.93;;;5.65;;
70148;SDS011;57514;52.164;5.282;2023-04-02T07:23:41;11.70;;;5.63;;
70148;SDS011;57514;52.164;5.282;2023-04-02T07:26:16;8.55;;;4.93;;
70148;SDS011;57514;52.164;5.282;2023-04-02T07:28:43;9.23;;;4.82;;
70148;SDS011;57514;52.164;5.282;2023-04-02T07:31:15;8.35;;;4.18;;
70148;SDS011;57514;52.164;5.282;2023-04-02T07:33:44;10.05;;;5.70;;
70148;SDS011;57514;52.164;5.282;2023-04-02T07:36:12;12.40;;;5.75;;
70148;SDS011;57514;52.164;5.282;2023-04-02T07:38:40;13.38;;;5.85;;
70148;SDS011;57514;52.164;5.282;2023-04-02T07:41:07;6.22;;;3.65;;
70148;SDS011;57514;52.164;5.282;2023-04-02T07:43:35;10.57;;;4.55;;
70148;SDS011;57514;52.164;5.282;2023-04-02T07:46:03;10.00;;;4.55;;
70148;SDS011;57514;52.164;5.282;2023-04-02T07:48:30;11.20;;;3.28;;
70148;SDS011;57514;52.164;5.282;2023-04-02T07:50:57;8.10;;;4.22;;
70148;SDS011;57514;52.164;5.282;2023-04-02T07:53:32;6.55;;;3.83;;
70148;SDS011;57514;52.164;5.282;2023-04-02T07:56:01;6.72;;;2.70;;
70148;SDS011;57514;52.164;5.282;2023-04-02T07:58:29;9.23;;;3.78;;
70148;SDS011;57514;52.164;5.282;2023-04-02T08:00:57;8.25;;;2.47;;
70148;SDS011;57514;52.164;5.282;2023-04-02T08:03:25;8.68;;;4.38;;
70148;SDS011;57514;52.164;5.282;2023-04-02T08:05:54;7.70;;;3.55;;
70148;SDS011;57514;52.164;5.282;2023-04-02T08:08:21;7.65;;;3.42;;
70148;SDS011;57514;52.164;5.282;2023-04-02T08:10:49;11.88;;;4.10;;
70148;SDS011;57514;52.164;5.282;2023-04-02T08:13:16;9.52;;;4.22;;
70148;SDS011;57514;52.164;5.282;2023-04-02T08:15:44;9.23;;;4.75;;
70148;SDS011;57514;52.164;5.282;2023-04-02T08:18:11;7.88;;;3.63;;
70148;SDS011;57514;52.164;5.282;2023-04-02T08:20:38;11.80;;;4.47;;
70148;SDS011;57514;52.164;5.282;2023-04-02T08:23:11;11.02;;;4.93;;
70148;SDS011;57514;52.164;5.282;2023-04-02T08:25:40;8.48;;;3.67;;
70148;SDS011;57514;52.164;5.282;2023-04-02T08:28:08;10.48;;;4.75;;
70148;SDS011;57514;52.164;5.282;2023-04-02T08:30:35;12.13;;;4.72;;
70148;SDS011;57514;52.164;5.282;2023-04-02T08:33:03;12.73;;;4.32;;
70148;SDS011;57514;52.164;5.282;2023-04-02T08:35:32;10.60;;;4.38;;
70148;SDS011;57514;52.164;5.282;2023-04-02T08:38:00;9.45;;;4.43;;
70148;SDS011;57514;52.164;5.282;2023-04-02T08:40:32;9.30;;;4.53;;
70148;SDS011;57514;52.164;5.282;2023-04-02T08:43:04;11.35;;;5.28;;
70148;SDS011;57514;52.164;5.282;2023-04-02T08:45:52;10.90;;;4.57;;
70148;SDS011;57514;52.164;5.282;2023-04-02T08:48:21;13.50;;;6.57;;
70148;SDS011;57514;52.164;5.282;2023-04-02T08:50:49;10.90;;;6.10;;
70148;SDS011;57514;52.164;5.282;2023-04-02T08:53:18;10.93;;;5.75;;
70148;SDS011;57514;52.164;5.282;2023-04-02T08:56:02;11.73;;;5.70;;
70148;SDS011;57514;52.164;5.282;2023-04-02T09:01:10;10.35;;;5.65;;
70148;SDS011;57514;52.164;5.282;2023-04-02T09:03:44;10.70;;;6.13;;
70148;SDS011;57514;52.164;5.282;2023-04-02T09:06:12;10.20;;;5.25;;
70148;SDS011;57514;52.164;5.282;2023-04-02T09:08:42;13.85;;;6.28;;
70148;SDS011;57514;52.164;5.282;2023-04-02T09:13:56;9.52;;;6.18;;
70148;SDS011;57514;52.164;5.282;2023-04-02T09:16:38;15.30;;;4.97;;
70148;SDS011;57514;52.164;5.282;2023-04-02T09:21:40;10.38;;;4.07;;
70148;SDS011;57514;52.164;5.282;2023-04-02T09:24:10;8.52;;;3.90;;
70148;SDS011;57514;52.164;5.282;2023-04-02T09:26:40;6.50;;;3.25;;
70148;SDS011;57514;52.164;5.282;2023-04-02T09:31:54;8.00;;;3.20;;
70148;SDS011;57514;52.164;5.282;2023-04-02T09:34:26;6.28;;;2.95;;
70148;SDS011;57514;52.164;5.282;2023-04-02T09:36:54;9.10;;;3.10;;
70148;SDS011;57514;52.164;5.282;2023-04-02T09:39:23;7.30;;;3.45;;
70148;SDS011;57514;52.164;5.282;2023-04-02T09:41:53;7.60;;;2.70;;
70148;SDS011;57514;52.164;5.282;2023-04-02T09:44:31;6.55;;;3.17;;
70148;SDS011;57514;52.164;5.282;2023-04-02T09:47:03;6.63;;;2.70;;
70148;SDS011;57514;52.164;5.282;2023-04-02T09:49:35;8.70;;;2.90;;
70148;SDS011;57514;52.164;5.282;2023-04-02T09:54:31;5.80;;;2.42;;
70148;SDS011;57514;52.164;5.282;2023-04-02T09:56:59;5.70;;;2.60;;
70148;SDS011;57514;52.164;5.282;2023-04-02T09:59:27;5.95;;;2.20;;
70148;SDS011;57514;52.164;5.282;2023-04-02T10:07:28;7.78;;;2.20;;
70148;SDS011;57514;52.164;5.282;2023-04-02T10:12:33;9.25;;;2.30;;
70148;SDS011;57514;52.164;5.282;2023-04-02T10:15:04;6.32;;;2.60;;
70148;SDS011;57514;52.164;5.282;2023-04-02T10:17:32;7.95;;;2.55;;
70148;SDS011;57514;52.164;5.282;2023-04-02T10:20:04;8.52;;;2.60;;
70148;SDS011;57514;52.164;5.282;2023-04-02T10:22:40;5.38;;;2.53;;
70148;SDS011;57514;52.164;5.282;2023-04-02T10:25:12;4.80;;;2.30;;
70148;SDS011;57514;52.164;5.282;2023-04-02T10:27:55;7.00;;;2.53;;
70148;SDS011;57514;52.164;5.282;2023-04-02T10:31:00;6.97;;;2.42;;
70148;SDS011;57514;52.164;5.282;2023-04-02T10:33:38;6.55;;;2.70;;
70148;SDS011;57514;52.164;5.282;2023-04-02T10:39:04;5.32;;;2.70;;
70148;SDS011;57514;52.164;5.282;2023-04-02T10:42:12;5.82;;;2.90;;
70148;SDS011;57514;52.164;5.282;2023-04-02T10:44:53;5.70;;;2.50;;
70148;SDS011;57514;52.164;5.282;2023-04-02T10:47:46;8.45;;;2.75;;
70148;SDS011;57514;52.164;5.282;2023-04-02T10:55:41;6.43;;;3.20;;
70148;SDS011;57514;52.164;5.282;2023-04-02T10:58:16;6.45;;;2.50;;
70148;SDS011;57514;52.164;5.282;2023-04-02T11:00:52;6.25;;;2.63;;
70148;SDS011;57514;52.164;5.282;2023-04-02T11:03:31;5.35;;;2.45;;
70148;SDS011;57514;52.164;5.282;2023-04-02T11:06:21;7.13;;;2.45;;
70148;SDS011;57514;52.164;5.282;2023-04-02T11:08:58;6.88;;;2.88;;
70148;SDS011;57514;52.164;5.282;2023-04-02T11:11:31;5.88;;;2.25;;
70148;SDS011;57514;52.164;5.282;2023-04-02T11:16:31;5.97;;;2.20;;
70148;SDS011;57514;52.164;5.282;2023-04-02T11:19:19;6.55;;;2.28;;
70148;SDS011;57514;52.164;5.282;2023-04-02T11:30:38;8.55;;;2.30;;
70148;SDS011;57514;52.164;5.282;2023-04-02T11:32:40;5.47;;;2.13;;
70148;SDS011;57514;52.164;5.282;2023-04-02T11:38:02;4.65;;;2.20;;
70148;SDS011;57514;52.164;5.282;2023-04-02T11:40:48;7.95;;;2.30;;
70148;SDS011;57514;52.164;5.282;2023-04-02T11:48:27;4.35;;;2.00;;
70148;SDS011;57514;52.164;5.282;2023-04-02T11:53:51;5.90;;;2.17;;
70148;SDS011;57514;52.164;5.282;2023-04-02T11:59:14;5.75;;;2.33;;
70148;SDS011;57514;52.164;5.282;2023-04-02T12:09:29;4.97;;;2.17;;
70148;SDS011;57514;52.164;5.282;2023-04-02T12:12:14;5.88;;;2.55;;
70148;SDS011;57514;52.164;5.282;2023-04-02T12:14:56;4.78;;;2.10;;
70148;SDS011;57514;52.164;5.282;2023-04-02T12:19:58;5.43;;;2.17;;
70148;SDS011;57514;52.164;5.282;2023-04-02T12:22:47;4.72;;;2.13;;
70148;SDS011;57514;52.164;5.282;2023-04-02T12:27:44;6.43;;;2.30;;
70148;SDS011;57514;52.164;5.282;2023-04-02T12:30:15;5.15;;;2.20;;
70148;SDS011;57514;52.164;5.282;2023-04-02T12:32:47;6.20;;;2.40;;
70148;SDS011;57514;52.164;5.282;2023-04-02T12:35:48;6.45;;;2.20;;
70148;SDS011;57514;52.164;5.282;2023-04-02T12:38:31;6.40;;;2.30;;
70148;SDS011;57514;52.164;5.282;2023-04-02T12:41:03;6.60;;;2.20;;
70148;SDS011;57514;52.164;5.282;2023-04-02T12:43:32;6.45;;;2.40;;
70148;SDS011;57514;52.164;5.282;2023-04-02T12:46:01;5.80;;;2.50;;
70148;SDS011;57514;52.164;5.282;2023-04-02T12:48:30;7.53;;;2.70;;
70148;SDS011;57514;52.164;5.282;2023-04-02T12:50:58;6.93;;;2.40;;
70148;SDS011;57514;52.164;5.282;2023-04-02T12:56:01;5.07;;;2.40;;
70148;SDS011;57514;52.164;5.282;2023-04-02T12:58:34;7.07;;;2.80;;
70148;SDS011;57514;52.164;5.282;2023-04-02T13:01:13;5.20;;;2.42;;
70148;SDS011;57514;52.164;5.282;2023-04-02T13:06:48;5.03;;;2.15;;
70148;SDS011;57514;52.164;5.282;2023-04-02T13:09:33;5.68;;;2.45;;
70148;SDS011;57514;52.164;5.282;2023-04-02T13:12:04;6.93;;;2.35;;
70148;SDS011;57514;52.164;5.282;2023-04-02T13:14:32;6.68;;;2.40;;
70148;SDS011;57514;52.164;5.282;2023-04-02T13:16:59;3.45;;;2.13;;
70148;SDS011;57514;52.164;5.282;2023-04-02T13:19:28;5.80;;;2.22;;
70148;SDS011;57514;52.164;5.282;2023-04-02T13:21:58;7.22;;;2.28;;
70148;SDS011;57514;52.164;5.282;2023-04-02T13:24:28;8.38;;;2.35;;
70148;SDS011;57514;52.164;5.282;2023-04-02T13:26:57;6.97;;;2.50;;
70148;SDS011;57514;52.164;5.282;2023-04-02T13:29:33;5.45;;;2.28;;
70148;SDS011;57514;52.164;5.282;2023-04-02T13:32:05;6.95;;;2.40;;
70148;SDS011;57514;52.164;5.282;2023-04-02T13:34:37;6.53;;;2.30;;
70148;SDS011;57514;52.164;5.282;2023-04-02T13:37:05;7.07;;;2.85;;
70148;SDS011;57514;52.164;5.282;2023-04-02T13:39:32;6.28;;;2.58;;
70148;SDS011;57514;52.164;5.282;2023-04-02T13:42:00;5.95;;;2.50;;
70148;SDS011;57514;52.164;5.282;2023-04-02T13:44:29;5.15;;;2.80;;
70148;SDS011;57514;52.164;5.282;2023-04-02T13:46:59;6.07;;;2.42;;
70148;SDS011;57514;52.164;5.282;2023-04-02T13:49:27;4.82;;;2.30;;
70148;SDS011;57514;52.164;5.282;2023-04-02T13:51:59;5.65;;;2.25;;
70148;SDS011;57514;52.164;5.282;2023-04-02T13:54:29;6.80;;;2.58;;
70148;SDS011;57514;52.164;5.282;2023-04-02T13:57:09;5.40;;;2.20;;
70148;SDS011;57514;52.164;5.282;2023-04-02T13:59:37;6.47;;;2.40;;
70148;SDS011;57514;52.164;5.282;2023-04-02T14:02:05;5.15;;;2.10;;
70148;SDS011;57514;52.164;5.282;2023-04-02T14:04:40;7.97;;;2.80;;
70148;SDS011;57514;52.164;5.282;2023-04-02T14:12:31;6.28;;;2.53;;
70148;SDS011;57514;52.164;5.282;2023-04-02T14:23:19;6.38;;;2.53;;
70148;SDS011;57514;52.164;5.282;2023-04-02T14:25:53;8.70;;;2.80;;
70148;SDS011;57514;52.164;5.282;2023-04-02T14:28:26;6.07;;;2.58;;
70148;SDS011;57514;52.164;5.282;2023-04-02T14:31:09;5.00;;;2.47;;
70148;SDS011;57514;52.164;5.282;2023-04-02T14:46:07;7.07;;;2.70;;
70148;SDS011;57514;52.164;5.282;2023-04-02T14:48:52;5.82;;;2.72;;
70148;SDS011;57514;52.164;5.282;2023-04-02T14:56:26;4.93;;;2.38;;
70148;SDS011;57514;52.164;5.282;2023-04-02T14:59:20;6.90;;;3.03;;
70148;SDS011;57514;52.164;5.282;2023-04-02T15:01:42;5.75;;;2.10;;
70148;SDS011;57514;52.164;5.282;2023-04-02T15:04:13;5.28;;;2.05;;
70148;SDS011;57514;52.164;5.282;2023-04-02T15:06:46;4.88;;;2.25;;
70148;SDS011;57514;52.164;5.282;2023-04-02T15:09:16;6.28;;;3.28;;
70148;SDS011;57514;52.164;5.282;2023-04-02T15:12:22;8.15;;;3.20;;
70148;SDS011;57514;52.164;5.282;2023-04-02T15:14:44;6.25;;;2.38;;
70148;SDS011;57514;52.164;5.282;2023-04-02T15:17:12;4.72;;;2.92;;
70148;SDS011;57514;52.164;5.282;2023-04-02T15:19:39;6.97;;;2.72;;
70148;SDS011;57514;52.164;5.282;2023-04-02T15:22:12;5.80;;;3.38;;
70148;SDS011;57514;52.164;5.282;2023-04-02T15:32:37;7.05;;;3.20;;
70148;SDS011;57514;52.164;5.282;2023-04-02T15:38:24;5.07;;;2.55;;
70148;SDS011;57514;52.164;5.282;2023-04-02T15:51:01;7.30;;;3.13;;
70148;SDS011;57514;52.164;5.282;2023-04-02T15:56:21;4.32;;;2.50;;
70148;SDS011;57514;52.164;5.282;2023-04-02T15:58:58;5.22;;;3.00;;
70148;SDS011;57514;52.164;5.282;2023-04-02T16:01:36;3.42;;;2.30;;
70148;SDS011;57514;52.164;5.282;2023-04-02T16:04:27;5.65;;;2.20;;
70148;SDS011;57514;52.164;5.282;2023-04-02T16:12:10;5.15;;;2.30;;
70148;SDS011;57514;52.164;5.282;2023-04-02T16:14:40;5.13;;;2.20;;
70148;SDS011;57514;52.164;5.282;2023-04-02T16:17:14;6.65;;;2.53;;
70148;SDS011;57514;52.164;5.282;2023-04-02T16:19:52;6.63;;;3.47;;
70148;SDS011;57514;52.164;5.282;2023-04-02T16:22:24;7.82;;;3.05;;
70148;SDS011;57514;52.164;5.282;2023-04-02T16:25:00;6.75;;;2.40;;
70148;SDS011;57514;52.164;5.282;2023-04-02T16:27:34;6.45;;;3.13;;
70148;SDS011;57514;52.164;5.282;2023-04-02T16:35:40;8.20;;;3.45;;
70148;SDS011;57514;52.164;5.282;2023-04-02T16:38:32;5.75;;;2.22;;
70148;SDS011;57514;52.164;5.282;2023-04-02T16:43:45;8.30;;;2.30;;
70148;SDS011;57514;52.164;5.282;2023-04-02T16:54:08;5.55;;;3.00;;
70148;SDS011;57514;52.164;5.282;2023-04-02T17:07:43;6.28;;;2.92;;
70148;SDS011;57514;52.164;5.282;2023-04-02T17:10:23;7.35;;;3.70;;
70148;SDS011;57514;52.164;5.282;2023-04-02T17:15:23;5.45;;;2.78;;
70148;SDS011;57514;52.164;5.282;2023-04-02T17:17:56;7.05;;;3.80;;
70148;SDS011;57514;52.164;5.282;2023-04-02T17:20:26;5.32;;;2.25;;
70148;SDS011;57514;52.164;5.282;2023-04-02T17:22:54;5.43;;;2.30;;
70148;SDS011;57514;52.164;5.282;2023-04-02T17:25:27;6.00;;;3.17;;
70148;SDS011;57514;52.164;5.282;2023-04-02T17:27:56;6.80;;;3.15;;
70148;SDS011;57514;52.164;5.282;2023-04-02T17:30:37;5.63;;;2.88;;
70148;SDS011;57514;52.164;5.282;2023-04-02T17:33:11;6.38;;;2.42;;
70148;SDS011;57514;52.164;5.282;2023-04-02T17:40:57;5.20;;;2.65;;
70148;SDS011;57514;52.164;5.282;2023-04-02T17:46:20;8.43;;;3.97;;
70148;SDS011;57514;52.164;5.282;2023-04-02T17:49:15;5.78;;;3.63;;
70148;SDS011;57514;52.164;5.282;2023-04-02T17:51:41;7.63;;;3.35;;
70148;SDS011;57514;52.164;5.282;2023-04-02T18:00:09;7.75;;;2.42;;
70148;SDS011;57514;52.164;5.282;2023-04-02T18:13:00;7.30;;;2.78;;
70148;SDS011;57514;52.164;5.282;2023-04-02T18:26:12;7.65;;;3.40;;
70148;SDS011;57514;52.164;5.282;2023-04-02T18:28:51;8.57;;;2.80;;
70148;SDS011;57514;52.164;5.282;2023-04-02T18:34:35;7.47;;;3.40;;
70148;SDS011;57514;52.164;5.282;2023-04-02T18:45:06;7.53;;;3.22;;
70148;SDS011;57514;52.164;5.282;2023-04-02T18:52:39;9.27;;;2.90;;
70148;SDS011;57514;52.164;5.282;2023-04-02T18:55:28;8.82;;;4.07;;
70148;SDS011;57514;52.164;5.282;2023-04-02T18:57:56;7.18;;;4.10;;
70148;SDS011;57514;52.164;5.282;2023-04-02T19:00:31;8.27;;;3.95;;
70148;SDS011;57514;52.164;5.282;2023-04-02T19:03:08;8.95;;;3.65;;
70148;SDS011;57514;52.164;5.282;2023-04-02T19:05:48;7.38;;;3.80;;
70148;SDS011;57514;52.164;5.282;2023-04-02T19:08:23;10.30;;;4.00;;
70148;SDS011;57514;52.164;5.282;2023-04-02T19:11:03;9.32;;;4.13;;
70148;SDS011;57514;52.164;5.282;2023-04-02T19:13:32;8.02;;;3.08;;
70148;SDS011;57514;52.164;5.282;2023-04-02T19:18:42;9.68;;;3.47;;
70148;SDS011;57514;52.164;5.282;2023-04-02T19:24:03;6.43;;;3.40;;
70148;SDS011;57514;52.164;5.282;2023-04-02T19:26:35;4.68;;;2.38;;
70148;SDS011;57514;52.164;5.282;2023-04-02T19:31:45;8.90;;;4.18;;
70148;SDS011;57514;52.164;5.282;2023-04-02T19:37:06;8.07;;;3.30;;
70148;SDS011;57514;52.164;5.282;2023-04-02T19:39:49;7.22;;;3.25;;
70148;SDS011;57514;52.164;5.282;2023-04-02T19:44:49;5.38;;;2.53;;
70148;SDS011;57514;52.164;5.282;2023-04-02T19:47:17;6.45;;;3.10;;
70148;SDS011;57514;52.164;5.282;2023-04-02T19:49:46;5.32;;;2.97;;
70148;SDS011;57514;52.164;5.282;2023-04-02T19:52:13;7.68;;;2.95;;
70148;SDS011;57514;52.164;5.282;2023-04-02T19:54:41;4.20;;;2.67;;
70148;SDS011;57514;52.164;5.282;2023-04-02T19:57:11;5.10;;;2.03;;
70148;SDS011;57514;52.164;5.282;2023-04-02T19:59:38;6.05;;;2.88;;
70148;SDS011;57514;52.164;5.282;2023-04-02T20:02:05;6.05;;;2.70;;
70148;SDS011;57514;52.164;5.282;2023-04-02T20:04:36;5.45;;;3.00;;
70148;SDS011;57514;52.164;5.282;2023-04-02T20:07:06;6.40;;;2.97;;